createdAt,value
2022-12-25T00:00:41.162Z,42.80
2022-12-25T00:05:44.025Z,42.80
2022-12-25T00:10:46.838Z,43.10
2022-12-25T00:15:51.063Z,43.10
2022-12-25T00:20:58.762Z,43.10
2022-12-25T00:26:05.844Z,43.20
2022-12-25T00:31:12.526Z,43.10
2022-12-25T00:36:17.201Z,43.10
2022-12-25T00:41:42.974Z,43.10
2022-12-25T00:46:47.290Z,43.00
2022-12-25T00:51:50.295Z,43.00
2022-12-25T00:56:53.166Z,43.10
2022-12-25T01:02:17.480Z,43.10
2022-12-25T01:07:20.807Z,43.20
2022-12-25T01:12:23.687Z,43.10
2022-12-25T01:17:27.880Z,43.10
2022-12-25T01:22:30.688Z,43.10
2022-12-25T01:27:33.925Z,43.10
2022-12-25T01:32:38.336Z,43.00
2022-12-25T01:37:41.147Z,43.10
2022-12-25T01:42:44.683Z,43.10
2022-12-25T01:47:48.930Z,43.10
2022-12-25T01:52:52.783Z,43.10
2022-12-25T01:57:55.677Z,43.10
2022-12-25T02:03:00.327Z,43.00
2022-12-25T02:08:08.654Z,43.00
2022-12-25T02:13:12.372Z,43.10
2022-12-25T02:18:22.352Z,43.10
2022-12-25T02:23:57.051Z,43.00
2022-12-25T02:29:06.148Z,43.10
2022-12-25T02:34:15.370Z,43.10
2022-12-25T02:39:45.369Z,43.10
2022-12-25T02:45:09.874Z,43.20
2022-12-25T02:50:31.572Z,43.10
2022-12-25T02:55:56.487Z,43.10
2022-12-25T03:01:22.638Z,43.30
2022-12-25T03:06:46.481Z,43.40
2022-12-25T03:11:55.360Z,43.40
2022-12-25T03:17:00.646Z,43.40
2022-12-25T03:22:23.927Z,43.40
2022-12-25T03:27:27.813Z,43.40
2022-12-25T03:32:40.105Z,43.40
2022-12-25T03:38:12.368Z,43.40
2022-12-25T03:43:46.315Z,43.30
2022-12-25T03:49:13.665Z,43.40
2022-12-25T03:54:38.719Z,43.30
2022-12-25T03:59:59.081Z,43.30
2022-12-25T04:05:20.419Z,43.30
2022-12-25T04:10:40.737Z,43.30
2022-12-25T04:16:01.068Z,43.20
2022-12-25T04:21:23.491Z,43.80
2022-12-25T04:26:43.887Z,43.20
2022-12-25T04:32:04.311Z,43.20
2022-12-25T04:37:08.515Z,43.20
2022-12-25T04:42:11.363Z,43.20
2022-12-25T04:47:14.530Z,43.20
2022-12-25T04:52:18.738Z,43.20
2022-12-25T04:57:21.647Z,43.20
2022-12-25T05:02:24.735Z,43.30
2022-12-25T05:07:29.133Z,43.30
2022-12-25T05:12:31.951Z,43.30
2022-12-25T05:17:34.890Z,43.30
2022-12-25T05:22:39.033Z,43.20
2022-12-25T05:27:41.919Z,43.10
2022-12-25T05:32:44.738Z,42.80
2022-12-25T05:37:49.013Z,42.70
2022-12-25T05:42:51.965Z,42.70
2022-12-25T05:47:54.828Z,42.70
2022-12-25T05:53:04.318Z,42.70
2022-12-25T05:58:11.652Z,42.70
2022-12-25T06:03:14.647Z,42.70
2022-12-25T06:08:18.965Z,42.70
2022-12-25T06:13:21.786Z,42.70
2022-12-25T06:18:24.600Z,42.70
2022-12-25T06:23:28.839Z,42.80
2022-12-25T06:28:31.735Z,42.80
2022-12-25T06:33:34.634Z,42.80
2022-12-25T06:38:39.097Z,42.80
2022-12-25T06:43:41.928Z,42.80
2022-12-25T06:48:49.201Z,42.70
2022-12-25T06:53:54.367Z,42.70
2022-12-25T06:58:59.024Z,42.60
2022-12-25T07:04:04.884Z,42.60
2022-12-25T07:09:09.020Z,42.70
2022-12-25T07:14:23.396Z,42.60
2022-12-25T07:19:27.188Z,42.50
2022-12-25T07:24:31.337Z,42.40
2022-12-25T07:29:34.245Z,42.40
2022-12-25T07:34:37.152Z,42.40
2022-12-25T07:39:41.659Z,42.40
2022-12-25T07:44:44.484Z,42.30
2022-12-25T07:49:47.403Z,42.30
2022-12-25T07:54:51.547Z,42.30
2022-12-25T07:59:54.398Z,42.30
2022-12-25T08:04:57.290Z,42.30
2022-12-25T08:10:01.552Z,42.30
2022-12-25T08:15:04.946Z,42.30
2022-12-25T08:20:09.331Z,42.30
2022-12-25T08:25:13.543Z,42.30
2022-12-25T08:30:16.548Z,42.30
2022-12-25T08:35:19.368Z,42.30
2022-12-25T08:40:23.528Z,42.30
2022-12-25T08:45:31.211Z,42.30
2022-12-25T08:50:37.442Z,42.10
2022-12-25T08:55:42.082Z,42.00
2022-12-25T09:00:44.908Z,41.90
2022-12-25T09:05:47.825Z,40.50
2022-12-25T09:10:52.025Z,40.90
2022-12-25T09:15:54.951Z,41.70
2022-12-25T09:21:01.660Z,42.50
2022-12-25T09:26:07.690Z,42.10
2022-12-25T09:31:10.847Z,42.00
2022-12-25T09:36:13.908Z,42.10
2022-12-25T09:41:23.067Z,42.30
2022-12-25T09:46:36.469Z,42.20
2022-12-25T09:51:43.216Z,42.30
2022-12-25T09:56:47.465Z,42.30
2022-12-25T10:02:11.369Z,42.20
2022-12-25T10:07:22.279Z,42.30
2022-12-25T10:12:39.609Z,42.20
2022-12-25T10:17:59.202Z,42.50
2022-12-25T10:23:04.826Z,42.20
2022-12-25T10:28:15.245Z,42.20
2022-12-25T10:33:22.250Z,42.30
2022-12-25T10:38:25.386Z,42.50
2022-12-25T10:43:36.751Z,42.40
2022-12-25T10:48:42.833Z,42.50
2022-12-25T10:53:45.736Z,42.50
2022-12-25T10:58:49.943Z,42.60
2022-12-25T11:03:53.592Z,42.70
2022-12-25T11:08:59.227Z,42.70
2022-12-25T11:14:04.539Z,42.90
2022-12-25T11:19:25.951Z,42.70
2022-12-25T11:24:30.247Z,42.80
2022-12-25T11:29:41.781Z,42.70
2022-12-25T11:34:47.550Z,42.70
2022-12-25T11:39:50.666Z,42.80
2022-12-25T11:45:00.297Z,42.80
2022-12-25T11:50:06.399Z,42.90
2022-12-25T11:55:18.051Z,43.00
2022-12-25T12:00:22.719Z,43.10
2022-12-25T12:05:30.167Z,43.20
2022-12-25T12:10:41.437Z,43.20
2022-12-25T12:15:48.577Z,43.10
2022-12-25T12:21:07.007Z,44.20
2022-12-25T12:26:19.960Z,43.80
2022-12-25T12:31:25.080Z,43.80
2022-12-25T12:36:36.327Z,43.80
2022-12-25T12:41:45.828Z,43.80
2022-12-25T12:46:55.120Z,43.80
2022-12-25T12:52:06.407Z,44.40
2022-12-25T12:57:25.228Z,44.80
2022-12-25T13:02:50.253Z,44.40
2022-12-25T13:08:01.016Z,44.00
2022-12-25T13:13:07.859Z,43.60
2022-12-25T13:18:14.400Z,43.50
2022-12-25T13:23:25.832Z,43.50
2022-12-25T13:28:30.852Z,43.40
2022-12-25T13:33:35.775Z,43.40
2022-12-25T13:38:43.588Z,43.30
2022-12-25T13:43:48.044Z,43.20
2022-12-25T13:48:58.825Z,43.20
2022-12-25T13:54:05.852Z,43.30
2022-12-25T13:59:17.215Z,43.10
2022-12-25T14:04:23.890Z,43.10
2022-12-25T14:09:26.934Z,43.10
2022-12-25T14:14:30.695Z,43.10
2022-12-25T14:19:35.615Z,43.70
2022-12-25T14:24:40.406Z,43.10
2022-12-25T14:29:46.475Z,43.30
2022-12-25T14:34:53.888Z,43.10
2022-12-25T14:39:58.980Z,43.00
2022-12-25T14:45:04.519Z,42.80
2022-12-25T14:50:25.462Z,42.70
2022-12-25T14:55:30.083Z,42.60
2022-12-25T15:00:35.825Z,42.50
2022-12-25T15:05:40.906Z,42.50
2022-12-25T15:11:01.773Z,42.30
2022-12-25T15:16:13.473Z,42.10
2022-12-25T15:21:22.880Z,42.00
2022-12-25T15:26:26.477Z,42.00
2022-12-25T15:31:31.363Z,42.00
2022-12-25T15:36:35.590Z,42.10
2022-12-25T15:41:57.284Z,42.10
2022-12-25T15:47:00.111Z,42.00
2022-12-25T15:52:04.641Z,41.90
2022-12-25T15:57:14.616Z,41.90
2022-12-25T16:02:19.526Z,41.80
2022-12-25T16:07:25.740Z,41.80
2022-12-25T16:12:28.635Z,41.80
2022-12-25T16:17:31.522Z,41.90
2022-12-25T16:22:39.969Z,41.60
2022-12-25T16:27:43.431Z,41.60
2022-12-25T16:32:50.301Z,41.60
2022-12-25T16:37:54.580Z,41.70
2022-12-25T16:42:57.548Z,41.60
2022-12-25T16:48:00.347Z,41.60
2022-12-25T16:53:04.562Z,41.50
2022-12-25T16:58:08.026Z,41.40
2022-12-25T17:03:11.035Z,41.40
2022-12-25T17:08:15.292Z,41.40
2022-12-25T17:13:18.248Z,41.30
2022-12-25T17:18:22.016Z,41.40
2022-12-25T17:23:26.296Z,41.40
2022-12-25T17:28:29.138Z,41.40
2022-12-25T17:33:32.181Z,41.40
2022-12-25T17:38:37.097Z,41.40
2022-12-25T17:43:42.033Z,41.30
2022-12-25T17:48:45.473Z,41.40
2022-12-25T17:53:51.586Z,41.40
2022-12-25T17:58:56.472Z,41.40
2022-12-25T18:04:00.460Z,41.40
2022-12-25T18:09:06.524Z,41.50
2022-12-25T18:14:12.295Z,41.50
2022-12-25T18:19:17.610Z,41.50
2022-12-25T18:24:21.838Z,41.20
2022-12-25T18:29:24.708Z,41.20
2022-12-25T18:34:27.510Z,41.40
2022-12-25T18:39:32.142Z,41.50
2022-12-25T18:44:34.963Z,41.70
2022-12-25T18:49:37.806Z,41.90
2022-12-25T18:54:42.044Z,42.00
2022-12-25T18:59:46.885Z,42.20
2022-12-25T19:04:49.762Z,42.20
2022-12-25T19:09:54.613Z,42.30
2022-12-25T19:14:57.441Z,42.00
2022-12-25T19:20:00.294Z,41.90
2022-12-25T19:25:05.080Z,41.80
2022-12-25T19:30:09.552Z,41.80
2022-12-25T19:35:12.360Z,41.60
2022-12-25T19:40:16.723Z,41.50
2022-12-25T19:45:19.908Z,41.60
2022-12-25T19:50:28.302Z,41.50
2022-12-25T19:55:33.114Z,41.50
2022-12-25T20:00:36.259Z,41.50
2022-12-25T20:05:39.134Z,41.50
2022-12-25T20:10:45.100Z,41.50
2022-12-25T20:15:48.282Z,41.40
2022-12-25T20:20:51.134Z,41.70
2022-12-25T20:25:58.266Z,41.70
2022-12-25T20:31:06.348Z,41.60
2022-12-25T20:36:09.843Z,42.20
2022-12-25T20:41:26.801Z,41.80
2022-12-25T20:46:30.842Z,41.70
2022-12-25T20:51:33.805Z,41.80
2022-12-25T20:56:38.644Z,41.40
2022-12-25T21:01:41.773Z,41.30
2022-12-25T21:06:44.768Z,41.30
2022-12-25T21:11:48.992Z,41.50
2022-12-25T21:16:51.910Z,41.50
2022-12-25T21:21:54.815Z,41.40
2022-12-25T21:26:58.956Z,41.20
2022-12-25T21:32:19.212Z,41.00
2022-12-25T21:37:22.002Z,40.90
2022-12-25T21:42:26.210Z,41.10
2022-12-25T21:48:02.074Z,41.40
2022-12-25T21:52:51.810Z,41.40
2022-12-25T21:57:56.011Z,41.40
2022-12-25T22:02:59.003Z,41.40
2022-12-25T22:08:01.874Z,41.20
2022-12-25T22:13:23.607Z,41.30
2022-12-25T22:18:44.088Z,41.40
2022-12-25T22:23:46.927Z,41.30
2022-12-25T22:28:51.117Z,41.10
2022-12-25T22:33:54.950Z,41.00
2022-12-25T22:38:57.785Z,41.20
2022-12-25T22:44:18.291Z,41.30
2022-12-25T22:49:21.632Z,41.40
2022-12-25T22:54:26.429Z,41.10
2022-12-25T22:59:30.654Z,41.30
2022-12-25T23:04:33.536Z,41.60
2022-12-25T23:09:36.436Z,41.30
2022-12-25T23:14:40.677Z,41.30
2022-12-25T23:20:01.018Z,41.40
2022-12-25T23:25:21.181Z,41.30
2022-12-25T23:30:25.347Z,41.50
2022-12-25T23:35:28.437Z,41.40
2022-12-25T23:40:31.286Z,41.80
2022-12-25T23:45:35.562Z,42.10
2022-12-25T23:50:38.663Z,42.10
2022-12-25T23:55:42.578Z,42.10
